createdAt,value
2022-10-14T00:03:28.225Z,11.95
2022-10-14T00:07:30.320Z,12.10
2022-10-14T00:11:34.717Z,12.85
2022-10-14T00:15:40.620Z,12.73
2022-10-14T00:19:42.358Z,13.60
2022-10-14T00:23:45.172Z,13.50
2022-10-14T00:27:46.874Z,13.07
2022-10-14T00:31:48.799Z,14.55
2022-10-14T00:35:57.601Z,13.88
2022-10-14T00:39:59.274Z,14.70
2022-10-14T00:44:05.491Z,15.73
2022-10-14T00:48:08.638Z,16.37
2022-10-14T00:52:22.096Z,17.55
2022-10-14T00:56:28.609Z,18.95
2022-10-14T01:00:30.412Z,18.93
2022-10-14T01:04:32.857Z,18.73
2022-10-14T01:08:54.743Z,19.17
2022-10-14T01:13:31.154Z,18.55
2022-10-14T01:17:32.777Z,19.05
2022-10-14T01:21:37.176Z,19.30
2022-10-14T01:26:22.029Z,20.17
2022-10-14T01:30:31.854Z,20.65
2022-10-14T01:34:55.570Z,21.80
2022-10-14T01:39:02.967Z,20.35
2022-10-14T01:47:08.959Z,21.50
2022-10-14T01:51:16.569Z,22.52
2022-10-14T01:55:22.181Z,24.02
2022-10-14T01:59:24.668Z,24.75
2022-10-14T02:03:26.348Z,25.70
2022-10-14T02:07:36.761Z,26.90
2022-10-14T02:11:56.498Z,25.23
2022-10-14T02:16:38.506Z,23.12
2022-10-14T02:21:25.285Z,27.13
2022-10-14T02:25:36.025Z,28.27
2022-10-14T02:29:40.316Z,26.30
2022-10-14T02:33:45.095Z,22.48
2022-10-14T02:37:48.239Z,21.73
2022-10-14T02:41:49.942Z,21.25
2022-10-14T02:46:01.586Z,21.50
2022-10-14T02:50:04.193Z,22.55
2022-10-14T02:54:05.864Z,21.58
2022-10-14T02:58:07.555Z,22.55
2022-10-14T03:02:09.484Z,22.13
2022-10-14T03:06:11.196Z,22.75
2022-10-14T03:10:12.971Z,22.42
2022-10-14T03:14:14.691Z,23.10
2022-10-14T03:18:16.538Z,24.50
2022-10-14T03:22:18.401Z,22.70
2022-10-14T03:26:20.308Z,22.73
2022-10-14T03:30:22.008Z,22.30
2022-10-14T03:34:23.745Z,21.25
2022-10-14T03:38:25.479Z,21.40
2022-10-14T03:42:27.165Z,21.00
2022-10-14T03:46:28.896Z,20.42
2022-10-14T03:50:30.742Z,19.48
2022-10-14T03:54:32.389Z,18.30
2022-10-14T03:58:34.048Z,18.27
2022-10-14T04:02:35.833Z,16.90
2022-10-14T04:06:37.873Z,17.90
2022-10-14T04:10:39.530Z,17.98
2022-10-14T04:14:41.243Z,17.77
2022-10-14T04:18:42.952Z,18.23
2022-10-14T04:22:44.790Z,17.52
2022-10-14T04:26:46.471Z,16.27
2022-10-14T04:30:48.145Z,16.30
2022-10-14T04:34:49.885Z,14.05
2022-10-14T04:38:51.664Z,13.85
2022-10-14T04:42:57.351Z,14.18
2022-10-14T04:46:59.044Z,12.95
2022-10-14T04:51:00.708Z,13.55
2022-10-14T04:55:03.502Z,13.10
2022-10-14T04:59:05.821Z,13.55
2022-10-14T05:03:07.519Z,14.80
2022-10-14T05:07:09.243Z,16.02
2022-10-14T05:11:10.924Z,15.63
2022-10-14T05:15:12.774Z,14.50
2022-10-14T05:19:14.529Z,16.55
2022-10-14T05:23:16.272Z,15.52
2022-10-14T05:27:18.302Z,17.20
2022-10-14T05:31:20.036Z,15.80
2022-10-14T05:35:39.920Z,14.70
2022-10-14T05:39:43.356Z,14.13
2022-10-14T05:43:45.043Z,13.23
2022-10-14T05:47:46.969Z,13.80
2022-10-14T05:51:48.664Z,13.68
2022-10-14T05:55:50.293Z,13.88
2022-10-14T05:59:51.993Z,13.32
2022-10-14T06:03:53.665Z,13.82
2022-10-14T06:07:55.343Z,13.88
2022-10-14T06:11:56.992Z,14.85
2022-10-14T06:16:06.512Z,14.75
2022-10-14T06:20:08.684Z,14.48
2022-10-14T06:24:11.024Z,13.32
2022-10-14T06:28:12.801Z,13.13
2022-10-14T06:32:14.479Z,11.43
2022-10-14T06:36:16.162Z,12.40
2022-10-14T06:40:17.916Z,10.60
2022-10-14T06:44:20.664Z,10.27
2022-10-14T06:48:22.800Z,10.23
2022-10-14T06:52:24.997Z,9.43
2022-10-14T06:56:26.892Z,8.45
2022-10-14T07:00:28.611Z,8.60
2022-10-14T07:04:30.354Z,8.27
2022-10-14T07:08:32.478Z,8.05
2022-10-14T07:12:34.400Z,8.18
2022-10-14T07:16:36.147Z,7.37
2022-10-14T07:20:38.001Z,7.85
2022-10-14T07:24:39.704Z,8.20
2022-10-14T07:28:41.544Z,8.45
2022-10-14T07:32:43.260Z,7.85
2022-10-14T07:36:44.973Z,7.45
2022-10-14T07:40:59.529Z,6.68
2022-10-14T07:45:01.390Z,6.53
2022-10-14T07:49:12.903Z,6.65
2022-10-14T07:53:14.803Z,6.18
2022-10-14T07:57:16.695Z,6.03
2022-10-14T08:01:18.856Z,5.55
2022-10-14T08:09:42.435Z,5.50
2022-10-14T08:13:46.256Z,5.50
2022-10-14T08:17:48.224Z,5.05
2022-10-14T08:21:49.896Z,5.47
2022-10-14T08:25:51.691Z,5.43
2022-10-14T08:29:54.424Z,5.28
2022-10-14T08:33:56.201Z,4.95
2022-10-14T08:37:59.575Z,4.05
2022-10-14T08:42:26.418Z,4.50
2022-10-14T08:46:42.564Z,4.22
2022-10-14T08:51:15.788Z,4.00
2022-10-14T08:56:06.718Z,3.47
2022-10-14T09:00:11.117Z,3.50
2022-10-14T09:04:14.957Z,3.55
2022-10-14T09:08:17.766Z,3.50
2022-10-14T09:12:26.861Z,3.53
2022-10-14T09:16:33.025Z,3.40
2022-10-14T09:20:34.802Z,3.67
2022-10-14T09:24:37.368Z,3.15
2022-10-14T09:28:41.300Z,3.35
2022-10-14T09:32:52.806Z,2.67
2022-10-14T09:36:54.668Z,2.72
2022-10-14T09:41:00.061Z,3.60
2022-10-14T09:45:13.915Z,3.35
2022-10-14T09:49:40.284Z,2.78
2022-10-14T09:53:49.074Z,2.80
2022-10-14T09:58:14.085Z,3.08
2022-10-14T10:02:24.133Z,3.50
2022-10-14T10:06:27.053Z,3.00
2022-10-14T10:10:31.761Z,3.45
2022-10-14T10:14:34.124Z,3.55
2022-10-14T10:18:35.816Z,3.35
2022-10-14T10:22:38.818Z,3.90
2022-10-14T10:26:40.593Z,3.33
2022-10-14T10:30:59.618Z,3.08
2022-10-14T10:35:29.854Z,3.80
2022-10-14T10:39:43.560Z,3.55
2022-10-14T10:44:28.371Z,3.62
2022-10-14T10:48:54.200Z,4.00
2022-10-14T10:53:03.934Z,4.28
2022-10-14T10:57:45.856Z,4.40
2022-10-14T11:01:56.751Z,4.60
2022-10-14T11:06:10.882Z,4.07
2022-10-14T11:10:37.160Z,5.20
2022-10-14T11:14:54.192Z,4.87
2022-10-14T11:19:21.216Z,5.35
2022-10-14T11:23:41.475Z,5.87
2022-10-14T11:28:04.390Z,5.78
2022-10-14T11:32:24.765Z,7.00
2022-10-14T11:36:40.171Z,6.75
2022-10-14T11:41:18.946Z,8.20
2022-10-14T11:45:35.795Z,8.00
2022-10-14T11:49:45.924Z,9.47
2022-10-14T11:53:55.648Z,7.70
2022-10-14T11:58:01.064Z,9.05
2022-10-14T12:02:30.600Z,8.45
2022-10-14T12:06:46.709Z,9.38
2022-10-14T12:10:59.129Z,10.25
2022-10-14T12:15:06.845Z,9.68
2022-10-14T12:19:11.713Z,9.23
2022-10-14T12:23:36.758Z,9.45
2022-10-14T12:27:39.125Z,9.10
2022-10-14T12:31:40.844Z,9.02
2022-10-14T12:35:50.709Z,8.50
2022-10-14T12:40:13.386Z,9.05
2022-10-14T12:44:19.091Z,9.20
2022-10-14T12:48:23.462Z,8.98
2022-10-14T12:52:55.936Z,9.73
2022-10-14T12:57:04.641Z,9.13
2022-10-14T13:01:18.641Z,9.25
2022-10-14T13:05:42.716Z,9.25
2022-10-14T13:09:45.300Z,8.70
2022-10-14T13:13:49.157Z,8.65
2022-10-14T13:17:50.809Z,9.27
2022-10-14T13:21:53.274Z,8.85
2022-10-14T13:26:18.088Z,9.35
2022-10-14T13:30:23.625Z,10.55
2022-10-14T13:34:29.577Z,9.90
2022-10-14T13:38:33.855Z,10.52
2022-10-14T13:42:37.333Z,10.93
2022-10-14T13:46:42.792Z,11.15
2022-10-14T13:50:50.349Z,11.43
2022-10-14T13:55:14.001Z,11.32
2022-10-14T13:59:45.689Z,12.15
2022-10-14T14:03:51.713Z,11.38
2022-10-14T14:12:15.948Z,11.27
2022-10-14T14:16:21.602Z,10.32
2022-10-14T14:20:26.284Z,10.30
2022-10-14T14:24:29.403Z,10.77
2022-10-14T14:28:32.512Z,11.38
2022-10-14T14:32:36.385Z,10.70
2022-10-14T14:36:55.419Z,10.93
2022-10-14T14:41:21.188Z,12.82
2022-10-14T14:45:25.779Z,12.00
2022-10-14T14:49:31.670Z,12.50
2022-10-14T14:53:33.517Z,12.43
2022-10-14T14:57:35.354Z,12.05
2022-10-14T15:01:41.109Z,11.98
2022-10-14T15:05:54.741Z,12.52
2022-10-14T15:10:00.225Z,13.00
2022-10-14T15:14:02.942Z,13.35
2022-10-14T15:18:19.671Z,13.07
2022-10-14T15:22:28.616Z,13.53
2022-10-14T15:26:36.186Z,13.90
2022-10-14T15:30:40.925Z,13.75
2022-10-14T15:34:42.665Z,13.73
2022-10-14T15:38:44.326Z,13.05
2022-10-14T15:42:47.269Z,13.55
2022-10-14T15:47:09.427Z,14.85
2022-10-14T15:51:16.001Z,13.80
2022-10-14T15:55:20.987Z,14.20
2022-10-14T15:59:25.514Z,14.82
2022-10-14T16:03:27.244Z,13.10
2022-10-14T16:07:28.944Z,13.80
2022-10-14T16:11:31.175Z,13.35
2022-10-14T16:15:44.000Z,12.65
2022-10-14T16:19:45.719Z,12.77
2022-10-14T16:23:47.481Z,14.52
2022-10-14T16:27:50.176Z,15.82
2022-10-14T16:31:52.317Z,14.90
2022-10-14T16:35:57.195Z,13.18
2022-10-14T16:39:58.877Z,12.85
2022-10-14T16:44:00.531Z,13.27
2022-10-14T16:48:02.584Z,13.27
2022-10-14T16:52:04.532Z,12.43
2022-10-14T16:56:31.664Z,12.55
2022-10-14T17:00:33.369Z,11.83
2022-10-14T17:04:35.037Z,11.75
2022-10-14T17:08:37.093Z,11.40
2022-10-14T17:12:39.482Z,12.25
2022-10-14T17:16:42.200Z,11.73
2022-10-14T17:20:43.876Z,10.63
2022-10-14T17:24:45.843Z,12.88
2022-10-14T17:28:48.376Z,12.40
2022-10-14T17:32:50.133Z,10.23
2022-10-14T17:36:53.321Z,12.37
2022-10-14T17:41:02.540Z,12.02
2022-10-14T17:45:04.548Z,11.18
2022-10-14T17:49:09.822Z,10.68
2022-10-14T17:53:12.585Z,11.18
2022-10-14T17:57:14.246Z,11.43
2022-10-14T18:01:16.546Z,10.75
2022-10-14T18:05:18.271Z,10.32
2022-10-14T18:09:19.996Z,11.73
2022-10-14T18:13:21.667Z,10.27
2022-10-14T18:17:24.093Z,11.07
2022-10-14T18:21:27.373Z,11.88
2022-10-14T18:25:29.037Z,12.32
2022-10-14T18:29:30.923Z,10.60
2022-10-14T18:33:34.439Z,11.80
2022-10-14T18:37:36.150Z,12.52
2022-10-14T18:41:37.930Z,12.90
2022-10-14T18:45:39.600Z,10.98
2022-10-14T18:49:41.427Z,12.77
2022-10-14T18:53:45.080Z,10.75
2022-10-14T18:57:46.730Z,11.98
2022-10-14T19:01:52.874Z,12.35
2022-10-14T19:05:57.860Z,12.77
2022-10-14T19:09:59.525Z,11.95
2022-10-14T19:14:05.268Z,12.90
2022-10-14T19:18:07.096Z,12.55
2022-10-14T19:22:10.633Z,11.85
2022-10-14T19:30:21.748Z,13.48
2022-10-14T19:34:26.896Z,12.32
2022-10-14T19:38:29.247Z,12.50
2022-10-14T19:42:30.968Z,12.10
2022-10-14T19:46:32.679Z,13.30
2022-10-14T19:50:34.626Z,15.20
2022-10-14T19:54:36.347Z,14.82
2022-10-14T19:58:42.275Z,14.20
2022-10-14T20:02:46.639Z,13.45
2022-10-14T20:06:48.301Z,13.95
2022-10-14T20:10:50.078Z,12.90
2022-10-14T20:14:51.874Z,14.07
2022-10-14T20:18:54.030Z,16.77
2022-10-14T20:22:55.700Z,15.15
2022-10-14T20:26:57.491Z,13.98
2022-10-14T20:30:59.173Z,13.57
2022-10-14T20:35:00.939Z,12.25
2022-10-14T20:39:02.794Z,11.15
2022-10-14T20:43:04.533Z,11.27
2022-10-14T20:47:06.208Z,10.77
2022-10-14T20:51:11.225Z,12.10
2022-10-14T20:55:13.060Z,10.75
2022-10-14T20:59:14.848Z,10.38
2022-10-14T21:03:16.529Z,10.82
2022-10-14T21:07:20.689Z,10.93
2022-10-14T21:11:24.682Z,9.75
2022-10-14T21:15:29.053Z,9.82
2022-10-14T21:19:31.070Z,9.55
2022-10-14T21:23:34.299Z,10.20
2022-10-14T21:27:36.010Z,10.05
2022-10-14T21:31:38.419Z,9.25
2022-10-14T21:35:40.116Z,8.65
2022-10-14T21:39:41.839Z,9.10
2022-10-14T21:43:43.645Z,8.70
2022-10-14T21:47:45.403Z,8.85
2022-10-14T21:51:47.083Z,8.18
2022-10-14T21:55:52.566Z,9.15
2022-10-14T21:59:54.246Z,8.02
2022-10-14T22:04:04.524Z,8.10
2022-10-14T22:08:06.519Z,7.75
2022-10-14T22:12:08.272Z,8.18
2022-10-14T22:16:10.000Z,7.85
2022-10-14T22:20:11.868Z,8.00
2022-10-14T22:24:14.215Z,8.10
2022-10-14T22:28:15.963Z,8.52
2022-10-14T22:32:17.726Z,8.23
2022-10-14T22:36:25.122Z,8.07
2022-10-14T22:40:26.821Z,7.93
2022-10-14T22:44:28.468Z,8.02
2022-10-14T22:48:30.852Z,7.47
2022-10-14T22:52:32.539Z,7.72
2022-10-14T22:56:34.489Z,8.35
2022-10-14T23:00:36.209Z,7.12
2022-10-14T23:04:37.940Z,8.23
2022-10-14T23:08:40.493Z,8.25
2022-10-14T23:12:42.193Z,8.68
2022-10-14T23:16:43.938Z,7.78
2022-10-14T23:20:45.602Z,7.43
2022-10-14T23:24:47.375Z,7.68
2022-10-14T23:28:56.025Z,7.15
2022-10-14T23:32:57.753Z,8.50
2022-10-14T23:36:59.431Z,7.60
2022-10-14T23:41:02.858Z,7.60
2022-10-14T23:45:05.292Z,6.50
2022-10-14T23:49:14.267Z,6.22
2022-10-14T23:53:27.200Z,7.28
2022-10-14T23:57:28.864Z,6.25
